sensor_id;sensor_type;location;lat;lon;timestamp;pressure;altitude;pressure_sealevel;temperature;humidity
23318;BME280;11831;55.918;37.746;2022-08-21T00:01:47;100243.84;;;19.46;0.00
23318;BME280;11831;55.918;37.746;2022-08-21T00:04:13;100246.03;;;19.49;0.00
23318;BME280;11831;55.918;37.746;2022-08-21T00:06:40;100245.44;;;19.32;0.00
23318;BME280;11831;55.918;37.746;2022-08-21T00:09:06;100247.63;;;19.40;0.00
23318;BME280;11831;55.918;37.746;2022-08-21T00:11:33;100250.63;;;19.49;0.00
23318;BME280;11831;55.918;37.746;2022-08-21T00:14:00;100238.97;;;19.48;0.00
23318;BME280;11831;55.918;37.746;2022-08-21T00:16:26;100251.97;;;19.36;0.00
23318;BME280;11831;55.918;37.746;2022-08-21T00:18:52;100243.56;;;19.38;0.00
23318;BME280;11831;55.918;37.746;2022-08-21T00:21:18;100243.28;;;19.34;0.00
23318;BME280;11831;55.918;37.746;2022-08-21T00:23:44;100247.28;;;19.27;0.00
23318;BME280;11831;55.918;37.746;2022-08-21T00:26:10;100238.41;;;19.31;0.00
23318;BME280;11831;55.918;37.746;2022-08-21T00:28:36;100249.44;;;19.14;0.00
23318;BME280;11831;55.918;37.746;2022-08-21T00:31:02;100240.94;;;18.96;0.00
23318;BME280;11831;55.918;37.746;2022-08-21T00:33:32;100238.34;;;19.21;0.00
23318;BME280;11831;55.918;37.746;2022-08-21T00:35:58;100242.66;;;19.17;0.00
23318;BME280;11831;55.918;37.746;2022-08-21T00:38:24;100242.38;;;19.13;0.00
23318;BME280;11831;55.918;37.746;2022-08-21T00:40:53;100239.41;;;19.20;0.00
23318;BME280;11831;55.918;37.746;2022-08-21T00:43:21;100235.09;;;19.24;0.00
23318;BME280;11831;55.918;37.746;2022-08-21T00:45:48;100228.78;;;19.03;0.00
23318;BME280;11831;55.918;37.746;2022-08-21T00:48:14;100234.25;;;19.13;0.00
23318;BME280;11831;55.918;37.746;2022-08-21T00:50:44;100228.03;;;19.18;0.00
23318;BME280;11831;55.918;37.746;2022-08-21T00:53:11;100226.94;;;19.19;0.00
23318;BME280;11831;55.918;37.746;2022-08-21T00:55:39;100225.03;;;19.14;0.00
23318;BME280;11831;55.918;37.746;2022-08-21T00:58:06;100227.44;;;19.01;0.00
23318;BME280;11831;55.918;37.746;2022-08-21T01:00:34;100223.41;;;19.18;0.00
23318;BME280;11831;55.918;37.746;2022-08-21T01:03:01;100221.75;;;19.07;0.00
23318;BME280;11831;55.918;37.746;2022-08-21T01:05:28;100220.41;;;19.05;0.00
23318;BME280;11831;55.918;37.746;2022-08-21T01:07:54;100225.81;;;19.00;0.00
23318;BME280;11831;55.918;37.746;2022-08-21T01:10:22;100234.69;;;18.95;0.00
23318;BME280;11831;55.918;37.746;2022-08-21T01:12:49;100236.91;;;19.03;0.00
23318;BME280;11831;55.918;37.746;2022-08-21T01:15:17;100229.06;;;19.07;0.00
23318;BME280;11831;55.918;37.746;2022-08-21T01:17:44;100230.34;;;18.94;0.00
23318;BME280;11831;55.918;37.746;2022-08-21T01:20:10;100223.03;;;18.95;0.00
23318;BME280;11831;55.918;37.746;2022-08-21T01:22:37;100238.44;;;18.84;0.00
23318;BME280;11831;55.918;37.746;2022-08-21T01:25:04;100238.72;;;18.87;0.00
23318;BME280;11831;55.918;37.746;2022-08-21T01:27:30;100239.25;;;18.84;0.00
23318;BME280;11831;55.918;37.746;2022-08-21T01:29:58;100230.63;;;18.92;0.00
23318;BME280;11831;55.918;37.746;2022-08-21T01:32:29;100235.19;;;18.82;0.00
23318;BME280;11831;55.918;37.746;2022-08-21T01:34:55;100236.97;;;18.66;0.00
23318;BME280;11831;55.918;37.746;2022-08-21T01:37:21;100235.41;;;18.75;0.00
23318;BME280;11831;55.918;37.746;2022-08-21T01:39:47;100232.91;;;18.64;0.00
23318;BME280;11831;55.918;37.746;2022-08-21T01:42:13;100235.88;;;18.62;0.00
23318;BME280;11831;55.918;37.746;2022-08-21T01:44:40;100229.81;;;18.50;0.00
23318;BME280;11831;55.918;37.746;2022-08-21T01:47:08;100226.06;;;18.56;0.00
23318;BME280;11831;55.918;37.746;2022-08-21T01:49:36;100230.13;;;18.58;0.00
23318;BME280;11831;55.918;37.746;2022-08-21T01:52:02;100219.25;;;18.48;0.00
23318;BME280;11831;55.918;37.746;2022-08-21T01:54:29;100224.09;;;18.46;0.00
23318;BME280;11831;55.918;37.746;2022-08-21T01:56:55;100222.97;;;18.37;0.00
23318;BME280;11831;55.918;37.746;2022-08-21T01:59:22;100227.31;;;18.38;0.00
23318;BME280;11831;55.918;37.746;2022-08-21T02:01:49;100226.87;;;18.19;0.00
23318;BME280;11831;55.918;37.746;2022-08-21T02:04:15;100219.69;;;18.35;0.00
23318;BME280;11831;55.918;37.746;2022-08-21T02:06:41;100227.81;;;18.35;0.00
23318;BME280;11831;55.918;37.746;2022-08-21T02:09:09;100218.84;;;18.29;0.00
23318;BME280;11831;55.918;37.746;2022-08-21T02:11:36;100220.09;;;18.17;0.00
23318;BME280;11831;55.918;37.746;2022-08-21T02:14:09;100220.41;;;18.20;0.00
23318;BME280;11831;55.918;37.746;2022-08-21T02:16:37;100223.03;;;18.10;0.00
23318;BME280;11831;55.918;37.746;2022-08-21T02:19:04;100227.22;;;17.96;0.00
23318;BME280;11831;55.918;37.746;2022-08-21T02:21:30;100233.78;;;18.05;0.00
23318;BME280;11831;55.918;37.746;2022-08-21T02:23:56;100228.97;;;18.07;0.00
23318;BME280;11831;55.918;37.746;2022-08-21T02:26:23;100228.34;;;18.00;0.00
23318;BME280;11831;55.918;37.746;2022-08-21T02:28:49;100224.09;;;18.09;0.00
23318;BME280;11831;55.918;37.746;2022-08-21T02:31:15;100233.78;;;18.05;0.00
23318;BME280;11831;55.918;37.746;2022-08-21T02:33:41;100234.00;;;17.98;0.00
23318;BME280;11831;55.918;37.746;2022-08-21T02:36:07;100244.50;;;17.90;0.00
23318;BME280;11831;55.918;37.746;2022-08-21T02:38:34;100236.97;;;17.97;0.00
23318;BME280;11831;55.918;37.746;2022-08-21T02:41:08;100244.56;;;18.00;0.00
23318;BME280;11831;55.918;37.746;2022-08-21T02:43:35;100241.81;;;17.95;0.00
23318;BME280;11831;55.918;37.746;2022-08-21T02:46:02;100237.22;;;17.95;0.00
23318;BME280;11831;55.918;37.746;2022-08-21T02:48:29;100237.31;;;18.06;0.00
23318;BME280;11831;55.918;37.746;2022-08-21T02:51:02;100243.47;;;17.96;0.00
23318;BME280;11831;55.918;37.746;2022-08-21T02:53:30;100249.84;;;18.12;0.00
23318;BME280;11831;55.918;37.746;2022-08-21T02:55:57;100241.06;;;17.99;0.00
23318;BME280;11831;55.918;37.746;2022-08-21T02:58:24;100244.88;;;18.04;0.00
23318;BME280;11831;55.918;37.746;2022-08-21T03:00:51;100248.75;;;18.13;0.00
23318;BME280;11831;55.918;37.746;2022-08-21T03:03:17;100232.75;;;18.06;0.00
23318;BME280;11831;55.918;37.746;2022-08-21T03:05:43;100239.41;;;17.98;0.00
23318;BME280;11831;55.918;37.746;2022-08-21T03:08:10;100244.06;;;18.03;0.00
23318;BME280;11831;55.918;37.746;2022-08-21T03:10:37;100247.25;;;17.95;0.00
23318;BME280;11831;55.918;37.746;2022-08-21T03:13:05;100238.34;;;17.99;0.00
23318;BME280;11831;55.918;37.746;2022-08-21T03:15:31;100247.84;;;18.02;0.00
23318;BME280;11831;55.918;37.746;2022-08-21T03:17:57;100240.50;;;18.29;0.00
23318;BME280;11831;55.918;37.746;2022-08-21T03:20:24;100239.63;;;18.24;0.00
23318;BME280;11831;55.918;37.746;2022-08-21T03:22:51;100244.84;;;18.36;0.00
23318;BME280;11831;55.918;37.746;2022-08-21T03:25:18;100236.75;;;18.36;0.00
23318;BME280;11831;55.918;37.746;2022-08-21T03:27:44;100246.03;;;18.45;0.00
23318;BME280;11831;55.918;37.746;2022-08-21T03:30:10;100252.25;;;18.45;0.00
23318;BME280;11831;55.918;37.746;2022-08-21T03:32:36;100255.00;;;18.50;0.00
23318;BME280;11831;55.918;37.746;2022-08-21T03:35:03;100248.28;;;18.58;0.00
23318;BME280;11831;55.918;37.746;2022-08-21T03:37:30;100263.41;;;18.54;0.00
23318;BME280;11831;55.918;37.746;2022-08-21T03:39:56;100259.91;;;18.58;0.00
23318;BME280;11831;55.918;37.746;2022-08-21T03:42:22;100253.28;;;18.71;0.00
23318;BME280;11831;55.918;37.746;2022-08-21T03:44:48;100259.16;;;18.63;0.00
23318;BME280;11831;55.918;37.746;2022-08-21T03:47:14;100259.59;;;18.87;0.00
23318;BME280;11831;55.918;37.746;2022-08-21T03:49:40;100254.78;;;18.57;0.00
23318;BME280;11831;55.918;37.746;2022-08-21T03:52:07;100259.81;;;18.80;0.00
23318;BME280;11831;55.918;37.746;2022-08-21T03:54:33;100263.63;;;18.84;0.00
23318;BME280;11831;55.918;37.746;2022-08-21T03:56:59;100263.63;;;18.84;0.00
23318;BME280;11831;55.918;37.746;2022-08-21T03:59:25;100265.38;;;19.06;0.00
23318;BME280;11831;55.918;37.746;2022-08-21T04:01:52;100255.62;;;19.05;0.00
23318;BME280;11831;55.918;37.746;2022-08-21T04:04:18;100251.03;;;19.10;0.00
23318;BME280;11831;55.918;37.746;2022-08-21T04:06:44;100255.16;;;19.23;0.00
23318;BME280;11831;55.918;37.746;2022-08-21T04:09:11;100251.47;;;18.92;0.00
23318;BME280;11831;55.918;37.746;2022-08-21T04:11:37;100258.19;;;19.32;0.00
23318;BME280;11831;55.918;37.746;2022-08-21T04:14:03;100260.53;;;19.08;0.00
23318;BME280;11831;55.918;37.746;2022-08-21T04:16:30;100256.84;;;18.82;0.00
23318;BME280;11831;55.918;37.746;2022-08-21T04:18:56;100258.22;;;19.52;0.00
23318;BME280;11831;55.918;37.746;2022-08-21T04:21:22;100261.78;;;18.95;0.00
23318;BME280;11831;55.918;37.746;2022-08-21T04:23:49;100259.66;;;19.65;0.00
23318;BME280;11831;55.918;37.746;2022-08-21T04:26:15;100260.41;;;19.50;0.00
23318;BME280;11831;55.918;37.746;2022-08-21T04:28:41;100252.00;;;19.51;0.00
23318;BME280;11831;55.918;37.746;2022-08-21T04:31:07;100259.44;;;19.92;0.00
23318;BME280;11831;55.918;37.746;2022-08-21T04:33:34;100252.66;;;19.94;0.00
23318;BME280;11831;55.918;37.746;2022-08-21T04:36:00;100255.38;;;20.09;0.00
23318;BME280;11831;55.918;37.746;2022-08-21T04:38:27;100257.81;;;20.31;0.00
23318;BME280;11831;55.918;37.746;2022-08-21T04:40:53;100260.50;;;19.85;0.00
23318;BME280;11831;55.918;37.746;2022-08-21T04:43:19;100262.97;;;20.07;0.00
23318;BME280;11831;55.918;37.746;2022-08-21T04:45:47;100262.44;;;20.36;0.00
23318;BME280;11831;55.918;37.746;2022-08-21T04:48:14;100272.50;;;20.30;0.00
23318;BME280;11831;55.918;37.746;2022-08-21T04:53:07;100264.63;;;20.34;0.00
23318;BME280;11831;55.918;37.746;2022-08-21T04:55:34;100263.53;;;20.50;0.00
23318;BME280;11831;55.918;37.746;2022-08-21T04:58:00;100272.50;;;20.66;0.00
23318;BME280;11831;55.918;37.746;2022-08-21T05:00:27;100273.28;;;20.87;0.00
23318;BME280;11831;55.918;37.746;2022-08-21T05:02:53;100273.00;;;20.73;0.00
23318;BME280;11831;55.918;37.746;2022-08-21T05:05:22;100267.84;;;20.82;0.00
23318;BME280;11831;55.918;37.746;2022-08-21T05:07:48;100269.16;;;20.99;0.00
23318;BME280;11831;55.918;37.746;2022-08-21T05:10:14;100277.59;;;20.93;0.00
23318;BME280;11831;55.918;37.746;2022-08-21T05:12:41;100267.25;;;21.00;0.00
23318;BME280;11831;55.918;37.746;2022-08-21T05:15:08;100266.19;;;20.91;0.00
23318;BME280;11831;55.918;37.746;2022-08-21T05:17:34;100263.97;;;21.03;0.00
23318;BME280;11831;55.918;37.746;2022-08-21T05:20:01;100258.59;;;20.77;0.00
23318;BME280;11831;55.918;37.746;2022-08-21T05:22:28;100252.97;;;20.54;0.00
23318;BME280;11831;55.918;37.746;2022-08-21T05:24:54;100258.50;;;21.08;0.00
23318;BME280;11831;55.918;37.746;2022-08-21T05:27:21;100261.00;;;20.94;0.00
23318;BME280;11831;55.918;37.746;2022-08-21T05:29:46;100260.66;;;21.26;0.00
23318;BME280;11831;55.918;37.746;2022-08-21T05:32:13;100262.22;;;21.37;0.00
23318;BME280;11831;55.918;37.746;2022-08-21T05:34:39;100263.56;;;21.45;0.00
23318;BME280;11831;55.918;37.746;2022-08-21T05:37:05;100268.31;;;21.68;0.00
23318;BME280;11831;55.918;37.746;2022-08-21T05:39:31;100257.94;;;21.76;0.00
23318;BME280;11831;55.918;37.746;2022-08-21T05:41:57;100253.44;;;21.95;0.00
23318;BME280;11831;55.918;37.746;2022-08-21T05:44:23;100244.56;;;21.84;0.00
23318;BME280;11831;55.918;37.746;2022-08-21T05:46:49;100244.97;;;22.07;0.00
23318;BME280;11831;55.918;37.746;2022-08-21T05:49:15;100253.78;;;21.44;0.00
23318;BME280;11831;55.918;37.746;2022-08-21T05:51:41;100248.25;;;21.98;0.00
23318;BME280;11831;55.918;37.746;2022-08-21T05:54:07;100241.41;;;22.01;0.00
23318;BME280;11831;55.918;37.746;2022-08-21T05:56:33;100240.09;;;22.33;0.00
23318;BME280;11831;55.918;37.746;2022-08-21T05:58:59;100242.44;;;22.15;0.00
23318;BME280;11831;55.918;37.746;2022-08-21T06:01:26;100236.50;;;22.08;0.00
23318;BME280;11831;55.918;37.746;2022-08-21T06:03:52;100236.38;;;22.23;0.00
23318;BME280;11831;55.918;37.746;2022-08-21T06:06:18;100241.59;;;22.20;0.00
23318;BME280;11831;55.918;37.746;2022-08-21T06:08:44;100241.97;;;22.37;0.00
23318;BME280;11831;55.918;37.746;2022-08-21T06:11:11;100243.84;;;22.71;0.00
23318;BME280;11831;55.918;37.746;2022-08-21T06:13:37;100238.56;;;22.50;0.00
23318;BME280;11831;55.918;37.746;2022-08-21T06:16:14;100244.94;;;22.70;0.00
23318;BME280;11831;55.918;37.746;2022-08-21T06:18:42;100237.13;;;22.29;0.00
23318;BME280;11831;55.918;37.746;2022-08-21T06:21:08;100236.81;;;22.36;0.00
23318;BME280;11831;55.918;37.746;2022-08-21T06:23:35;100240.47;;;22.79;0.00
23318;BME280;11831;55.918;37.746;2022-08-21T06:26:01;100249.22;;;23.05;0.00
23318;BME280;11831;55.918;37.746;2022-08-21T06:28:28;100233.66;;;23.05;0.00
23318;BME280;11831;55.918;37.746;2022-08-21T06:30:54;100220.84;;;23.24;0.00
23318;BME280;11831;55.918;37.746;2022-08-21T06:33:20;100221.72;;;23.20;0.00
23318;BME280;11831;55.918;37.746;2022-08-21T06:35:46;100232.94;;;22.71;0.00
23318;BME280;11831;55.918;37.746;2022-08-21T06:38:12;100228.09;;;23.34;0.00
23318;BME280;11831;55.918;37.746;2022-08-21T06:40:38;100237.00;;;23.21;0.00
23318;BME280;11831;55.918;37.746;2022-08-21T06:43:10;100229.78;;;23.30;0.00
23318;BME280;11831;55.918;37.746;2022-08-21T06:45:37;100224.34;;;23.49;0.00
23318;BME280;11831;55.918;37.746;2022-08-21T06:48:03;100230.69;;;23.44;0.00
23318;BME280;11831;55.918;37.746;2022-08-21T06:50:29;100214.25;;;23.87;0.00
23318;BME280;11831;55.918;37.746;2022-08-21T06:53:02;100224.28;;;23.92;0.00
23318;BME280;11831;55.918;37.746;2022-08-21T06:55:29;100226.56;;;23.84;0.00
23318;BME280;11831;55.918;37.746;2022-08-21T06:57:55;100215.69;;;23.66;0.00
23318;BME280;11831;55.918;37.746;2022-08-21T07:00:21;100217.94;;;23.96;0.00
23318;BME280;11831;55.918;37.746;2022-08-21T07:02:47;100224.81;;;24.26;0.00
23318;BME280;11831;55.918;37.746;2022-08-21T07:05:13;100213.13;;;24.39;0.00
23318;BME280;11831;55.918;37.746;2022-08-21T07:07:39;100209.91;;;24.51;0.00
23318;BME280;11831;55.918;37.746;2022-08-21T07:10:06;100205.22;;;24.38;0.00
23318;BME280;11831;55.918;37.746;2022-08-21T07:12:32;100206.87;;;24.20;0.00
23318;BME280;11831;55.918;37.746;2022-08-21T07:14:58;100204.44;;;23.86;0.00
23318;BME280;11831;55.918;37.746;2022-08-21T07:17:24;100203.09;;;24.16;0.00
23318;BME280;11831;55.918;37.746;2022-08-21T07:19:50;100194.41;;;24.14;0.00
23318;BME280;11831;55.918;37.746;2022-08-21T07:22:18;100197.06;;;24.19;0.00
23318;BME280;11831;55.918;37.746;2022-08-21T07:24:45;100202.78;;;24.04;0.00
23318;BME280;11831;55.918;37.746;2022-08-21T07:27:12;100211.91;;;24.45;0.00
23318;BME280;11831;55.918;37.746;2022-08-21T07:29:38;100200.81;;;24.56;0.00
23318;BME280;11831;55.918;37.746;2022-08-21T07:32:04;100207.91;;;24.24;0.00
23318;BME280;11831;55.918;37.746;2022-08-21T07:34:31;100209.63;;;24.94;0.00
23318;BME280;11831;55.918;37.746;2022-08-21T07:36:57;100206.37;;;25.19;0.00
23318;BME280;11831;55.918;37.746;2022-08-21T07:39:24;100202.72;;;25.10;0.00
23318;BME280;11831;55.918;37.746;2022-08-21T07:41:50;100211.44;;;25.26;0.00
23318;BME280;11831;55.918;37.746;2022-08-21T07:44:16;100196.75;;;25.22;0.00
23318;BME280;11831;55.918;37.746;2022-08-21T07:46:42;100206.69;;;25.18;0.00
23318;BME280;11831;55.918;37.746;2022-08-21T07:49:08;100205.66;;;25.41;0.00
23318;BME280;11831;55.918;37.746;2022-08-21T07:51:34;100204.34;;;25.75;0.00
23318;BME280;11831;55.918;37.746;2022-08-21T07:54:00;100191.44;;;25.39;0.00
23318;BME280;11831;55.918;37.746;2022-08-21T07:56:27;100199.31;;;25.41;0.00
23318;BME280;11831;55.918;37.746;2022-08-21T07:58:53;100196.59;;;25.99;0.00
23318;BME280;11831;55.918;37.746;2022-08-21T08:01:20;100192.69;;;26.36;0.00
23318;BME280;11831;55.918;37.746;2022-08-21T08:03:46;100193.81;;;26.13;0.00
23318;BME280;11831;55.918;37.746;2022-08-21T08:06:12;100179.53;;;26.24;0.00
23318;BME280;11831;55.918;37.746;2022-08-21T08:08:39;100183.31;;;26.68;0.00
23318;BME280;11831;55.918;37.746;2022-08-21T08:11:06;100190.75;;;26.37;0.00
23318;BME280;11831;55.918;37.746;2022-08-21T08:13:37;100187.72;;;26.47;0.00
23318;BME280;11831;55.918;37.746;2022-08-21T08:16:04;100180.00;;;26.49;0.00
23318;BME280;11831;55.918;37.746;2022-08-21T08:18:30;100183.06;;;26.47;41.22
23318;BME280;11831;55.918;37.746;2022-08-21T08:20:56;100186.56;;;26.70;41.07
23318;BME280;11831;55.918;37.746;2022-08-21T08:23:22;100190.88;;;27.02;40.47
23318;BME280;11831;55.918;37.746;2022-08-21T08:25:48;100176.41;;;26.88;41.42
23318;BME280;11831;55.918;37.746;2022-08-21T08:28:15;100174.91;;;27.04;41.39
23318;BME280;11831;55.918;37.746;2022-08-21T08:30:41;100172.97;;;27.13;41.36
23318;BME280;11831;55.918;37.746;2022-08-21T08:33:08;100167.34;;;26.70;0.00
23318;BME280;11831;55.918;37.746;2022-08-21T08:35:34;100156.41;;;26.79;0.00
23318;BME280;11831;55.918;37.746;2022-08-21T08:38:02;100165.87;;;27.30;41.20
23318;BME280;11831;55.918;37.746;2022-08-21T08:40:32;100169.44;;;27.39;40.69
23318;BME280;11831;55.918;37.746;2022-08-21T08:43:02;100166.66;;;27.13;39.90
23318;BME280;11831;55.918;37.746;2022-08-21T08:45:36;100155.56;;;27.27;39.73
23318;BME280;11831;55.918;37.746;2022-08-21T08:48:04;100152.50;;;27.63;39.20
23318;BME280;11831;55.918;37.746;2022-08-21T08:52:58;100146.03;;;27.76;38.71
23318;BME280;11831;55.918;37.746;2022-08-21T08:55:30;100141.03;;;27.69;38.52
23318;BME280;11831;55.918;37.746;2022-08-21T08:57:58;100141.81;;;27.87;37.94
23318;BME280;11831;55.918;37.746;2022-08-21T09:00:25;100147.94;;;27.93;38.47
23318;BME280;11831;55.918;37.746;2022-08-21T09:02:53;100138.81;;;28.27;37.97
23318;BME280;11831;55.918;37.746;2022-08-21T09:05:24;100147.97;;;28.48;37.59
23318;BME280;11831;55.918;37.746;2022-08-21T09:07:59;100138.84;;;28.18;37.46
23318;BME280;11831;55.918;37.746;2022-08-21T09:10:35;100136.66;;;28.41;36.98
23318;BME280;11831;55.918;37.746;2022-08-21T09:23:23;100143.75;;;28.51;36.00
23318;BME280;11831;55.918;37.746;2022-08-21T09:26:14;100143.34;;;28.99;34.95
23318;BME280;11831;55.918;37.746;2022-08-21T09:28:38;100146.22;;;28.73;34.59
23318;BME280;11831;55.918;37.746;2022-08-21T09:31:08;100144.81;;;28.96;34.80
23318;BME280;11831;55.918;37.746;2022-08-21T09:33:34;100139.56;;;28.74;34.48
23318;BME280;11831;55.918;37.746;2022-08-21T09:36:00;100140.34;;;28.83;35.09
23318;BME280;11831;55.918;37.746;2022-08-21T09:38:31;100133.16;;;28.61;34.26
23318;BME280;11831;55.918;37.746;2022-08-21T09:40:59;100135.84;;;28.49;34.64
23318;BME280;11831;55.918;37.746;2022-08-21T09:43:26;100131.78;;;29.05;34.48
23318;BME280;11831;55.918;37.746;2022-08-21T09:46:09;100135.50;;;29.30;34.17
23318;BME280;11831;55.918;37.746;2022-08-21T09:48:43;100130.69;;;29.48;33.89
23318;BME280;11831;55.918;37.746;2022-08-21T09:51:14;100131.16;;;28.70;34.20
23318;BME280;11831;55.918;37.746;2022-08-21T09:53:45;100132.06;;;29.75;34.30
23318;BME280;11831;55.918;37.746;2022-08-21T09:56:19;100137.84;;;29.41;34.78
23318;BME280;11831;55.918;37.746;2022-08-21T10:02:19;100124.47;;;29.72;33.71
23318;BME280;11831;55.918;37.746;2022-08-21T10:05:00;100127.94;;;29.48;33.14
23318;BME280;11831;55.918;37.746;2022-08-21T10:07:31;100124.00;;;29.70;33.33
23318;BME280;11831;55.918;37.746;2022-08-21T10:10:08;100121.31;;;29.61;32.79
23318;BME280;11831;55.918;37.746;2022-08-21T10:20:36;100138.25;;;29.10;33.32
23318;BME280;11831;55.918;37.746;2022-08-21T10:23:07;100132.88;;;29.13;32.96
23318;BME280;11831;55.918;37.746;2022-08-21T10:25:44;100125.88;;;28.95;33.11
23318;BME280;11831;55.918;37.746;2022-08-21T10:28:31;100120.34;;;29.45;33.01
23318;BME280;11831;55.918;37.746;2022-08-21T10:32:04;100112.88;;;29.25;32.99
23318;BME280;11831;55.918;37.746;2022-08-21T10:44:21;100109.91;;;30.41;33.10
23318;BME280;11831;55.918;37.746;2022-08-21T10:46:54;100113.12;;;30.19;32.99
23318;BME280;11831;55.918;37.746;2022-08-21T10:56:59;100097.81;;;30.58;31.40
23318;BME280;11831;55.918;37.746;2022-08-21T10:59:37;100095.19;;;30.25;31.47
23318;BME280;11831;55.918;37.746;2022-08-21T11:04:40;100104.22;;;29.68;32.29
23318;BME280;11831;55.918;37.746;2022-08-21T11:07:15;100090.44;;;30.01;32.06
23318;BME280;11831;55.918;37.746;2022-08-21T11:09:43;100090.53;;;29.59;32.56
23318;BME280;11831;55.918;37.746;2022-08-21T11:17:18;100091.13;;;29.65;32.12
23318;BME280;11831;55.918;37.746;2022-08-21T11:25:06;100084.03;;;29.43;32.88
23318;BME280;11831;55.918;37.746;2022-08-21T11:30:00;100083.25;;;29.43;33.63
23318;BME280;11831;55.918;37.746;2022-08-21T11:40:13;100080.47;;;29.43;33.67
23318;BME280;11831;55.918;37.746;2022-08-21T11:52:57;100074.19;;;29.21;34.14
23318;BME280;11831;55.918;37.746;2022-08-21T11:57:59;100090.91;;;29.16;34.38
23318;BME280;11831;55.918;37.746;2022-08-21T12:00:34;100092.44;;;28.75;33.98
23318;BME280;11831;55.918;37.746;2022-08-21T12:03:11;100095.88;;;28.72;34.84
23318;BME280;11831;55.918;37.746;2022-08-21T12:05:53;100092.28;;;29.10;34.78
23318;BME280;11831;55.918;37.746;2022-08-21T12:08:31;100086.00;;;29.01;34.90
23318;BME280;11831;55.918;37.746;2022-08-21T12:11:22;100086.25;;;29.29;34.61
23318;BME280;11831;55.918;37.746;2022-08-21T12:13:55;100082.72;;;29.28;34.85
23318;BME280;11831;55.918;37.746;2022-08-21T12:19:10;100084.06;;;28.72;34.82
23318;BME280;11831;55.918;37.746;2022-08-21T12:21:54;100086.50;;;28.44;35.46
23318;BME280;11831;55.918;37.746;2022-08-21T12:27:01;100077.87;;;28.54;35.44
23318;BME280;11831;55.918;37.746;2022-08-21T12:29:38;100073.94;;;28.64;35.28
23318;BME280;11831;55.918;37.746;2022-08-21T12:37:04;100062.84;;;28.52;33.90
23318;BME280;11831;55.918;37.746;2022-08-21T12:39:33;100061.22;;;28.12;33.59
23318;BME280;11831;55.918;37.746;2022-08-21T12:44:34;100054.69;;;28.34;33.53
23318;BME280;11831;55.918;37.746;2022-08-21T12:47:06;100045.56;;;28.04;32.90
23318;BME280;11831;55.918;37.746;2022-08-21T12:49:36;100051.81;;;28.22;32.21
23318;BME280;11831;55.918;37.746;2022-08-21T12:54:30;100056.03;;;28.79;31.64
23318;BME280;11831;55.918;37.746;2022-08-21T12:57:04;100054.00;;;28.67;32.21
23318;BME280;11831;55.918;37.746;2022-08-21T12:59:31;100065.66;;;28.93;31.82
23318;BME280;11831;55.918;37.746;2022-08-21T13:01:59;100074.13;;;28.59;31.79
23318;BME280;11831;55.918;37.746;2022-08-21T13:04:32;100067.81;;;28.58;32.17
23318;BME280;11831;55.918;37.746;2022-08-21T13:06:59;100062.62;;;29.07;32.82
23318;BME280;11831;55.918;37.746;2022-08-21T13:09:27;100075.09;;;28.84;33.29
23318;BME280;11831;55.918;37.746;2022-08-21T13:11:53;100055.88;;;28.16;33.48
23318;BME280;11831;55.918;37.746;2022-08-21T13:14:30;100075.63;;;28.77;33.28
23318;BME280;11831;55.918;37.746;2022-08-21T13:16:58;100073.38;;;28.03;34.09
23318;BME280;11831;55.918;37.746;2022-08-21T13:19:25;100066.38;;;28.14;34.28
23318;BME280;11831;55.918;37.746;2022-08-21T13:21:51;100059.09;;;28.27;34.47
23318;BME280;11831;55.918;37.746;2022-08-21T13:24:25;100056.03;;;28.20;34.65
23318;BME280;11831;55.918;37.746;2022-08-21T13:26:51;100072.16;;;27.92;35.04
23318;BME280;11831;55.918;37.746;2022-08-21T13:29:19;100061.13;;;28.00;35.01
23318;BME280;11831;55.918;37.746;2022-08-21T13:31:49;100057.91;;;27.98;35.29
23318;BME280;11831;55.918;37.746;2022-08-21T13:34:19;100067.94;;;27.86;34.94
23318;BME280;11831;55.918;37.746;2022-08-21T13:36:46;100069.75;;;28.58;34.79
23318;BME280;11831;55.918;37.746;2022-08-21T13:39:15;100068.63;;;28.88;34.97
23318;BME280;11831;55.918;37.746;2022-08-21T13:41:43;100073.53;;;28.74;34.91
23318;BME280;11831;55.918;37.746;2022-08-21T13:44:20;100071.50;;;28.62;35.57
23318;BME280;11831;55.918;37.746;2022-08-21T13:46:48;100063.13;;;29.09;35.08
23318;BME280;11831;55.918;37.746;2022-08-21T13:49:16;100058.13;;;28.82;35.69
23318;BME280;11831;55.918;37.746;2022-08-21T13:51:43;100065.13;;;28.70;35.83
23318;BME280;11831;55.918;37.746;2022-08-21T13:54:53;100047.53;;;28.42;36.42
23318;BME280;11831;55.918;37.746;2022-08-21T13:56:59;100056.94;;;28.62;36.50
23318;BME280;11831;55.918;37.746;2022-08-21T13:59:27;100047.81;;;28.49;36.75
23318;BME280;11831;55.918;37.746;2022-08-21T14:01:58;100042.31;;;28.11;37.28
23318;BME280;11831;55.918;37.746;2022-08-21T14:04:33;100032.91;;;28.21;37.13
23318;BME280;11831;55.918;37.746;2022-08-21T14:07:00;100035.84;;;28.45;37.22
23318;BME280;11831;55.918;37.746;2022-08-21T14:09:32;100040.78;;;28.31;37.31
23318;BME280;11831;55.918;37.746;2022-08-21T14:12:03;100032.59;;;28.13;38.00
23318;BME280;11831;55.918;37.746;2022-08-21T14:14:37;100032.22;;;28.32;38.55
23318;BME280;11831;55.918;37.746;2022-08-21T14:17:06;100030.31;;;28.24;38.78
23318;BME280;11831;55.918;37.746;2022-08-21T14:19:37;100034.44;;;28.01;39.23
23318;BME280;11831;55.918;37.746;2022-08-21T14:22:23;100037.72;;;27.94;39.39
23318;BME280;11831;55.918;37.746;2022-08-21T14:24:58;100022.31;;;28.02;39.80
23318;BME280;11831;55.918;37.746;2022-08-21T14:27:25;100031.91;;;27.87;40.70